createdAt,value
2022-09-21T00:02:57.242Z,6.49
2022-09-21T00:06:01.961Z,6.23
2022-09-21T00:09:04.470Z,6.43
2022-09-21T00:12:07.528Z,6.47
2022-09-21T00:15:10.263Z,6.41
2022-09-21T00:18:11.861Z,6.54
2022-09-21T00:21:14.979Z,6.66
2022-09-21T00:24:16.554Z,6.65
2022-09-21T00:27:19.549Z,6.53
2022-09-21T00:30:21.169Z,6.56
2022-09-21T00:33:22.769Z,6.57
2022-09-21T00:36:24.897Z,6.50
2022-09-21T00:39:26.522Z,6.44
2022-09-21T00:42:30.257Z,6.60
2022-09-21T00:45:31.993Z,6.62
2022-09-21T00:48:33.853Z,6.70
2022-09-21T00:51:35.535Z,6.79
2022-09-21T00:54:41.007Z,6.77
2022-09-21T00:57:45.268Z,6.84
2022-09-21T01:00:46.963Z,6.87
2022-09-21T01:03:49.113Z,6.95
2022-09-21T01:06:52.292Z,7.01
2022-09-21T01:09:55.159Z,7.01
2022-09-21T01:13:04.744Z,7.07
2022-09-21T01:16:10.972Z,6.95
2022-09-21T01:19:23.808Z,6.87
2022-09-21T01:22:32.635Z,6.97
2022-09-21T01:25:41.825Z,7.03
2022-09-21T01:29:01.035Z,6.92
2022-09-21T01:32:06.953Z,6.95
2022-09-21T01:35:10.841Z,6.93
2022-09-21T01:38:14.492Z,6.81
2022-09-21T01:41:18.402Z,6.79
2022-09-21T01:44:21.826Z,6.76
2022-09-21T01:47:25.165Z,6.95
2022-09-21T01:50:29.155Z,6.77
2022-09-21T01:53:33.379Z,6.71
2022-09-21T01:56:36.505Z,6.76
2022-09-21T01:59:41.250Z,6.78
2022-09-21T02:02:46.939Z,6.99
2022-09-21T02:05:48.606Z,6.89
2022-09-21T02:08:50.240Z,6.78
2022-09-21T02:11:51.801Z,6.88
2022-09-21T02:14:53.953Z,6.94
2022-09-21T02:18:03.449Z,6.89
2022-09-21T02:21:08.263Z,6.99
2022-09-21T02:24:13.705Z,7.03
2022-09-21T02:27:20.965Z,7.09
2022-09-21T02:30:23.721Z,7.12
2022-09-21T02:33:30.804Z,7.14
2022-09-21T02:36:37.242Z,7.19
2022-09-21T02:39:42.324Z,7.19
2022-09-21T02:42:44.431Z,7.16
2022-09-21T02:45:49.852Z,7.23
2022-09-21T02:48:54.122Z,7.25
2022-09-21T02:51:58.312Z,7.27
2022-09-21T02:55:01.356Z,7.31
2022-09-21T02:58:04.912Z,7.34
2022-09-21T03:01:08.154Z,7.35
2022-09-21T03:04:11.198Z,7.35
2022-09-21T03:07:13.035Z,7.35
2022-09-21T03:10:14.722Z,7.39
2022-09-21T03:13:16.633Z,7.40
2022-09-21T03:16:18.474Z,7.38
2022-09-21T03:19:21.476Z,7.42
2022-09-21T03:22:23.186Z,7.30
2022-09-21T03:25:24.847Z,7.25
2022-09-21T03:28:26.512Z,7.31
2022-09-21T03:31:28.178Z,7.32
2022-09-21T03:34:31.261Z,7.33
2022-09-21T03:37:32.864Z,7.38
2022-09-21T03:40:34.818Z,7.37
2022-09-21T03:43:36.418Z,7.37
2022-09-21T03:46:38.037Z,7.33
2022-09-21T03:49:41.029Z,7.37
2022-09-21T03:52:42.619Z,7.38
2022-09-21T03:55:44.225Z,7.32
2022-09-21T03:58:45.844Z,7.36
2022-09-21T04:01:47.543Z,7.33
2022-09-21T04:04:50.496Z,7.33
2022-09-21T04:07:54.091Z,7.35
2022-09-21T04:10:55.961Z,7.36
2022-09-21T04:13:57.540Z,7.38
2022-09-21T04:16:59.322Z,7.33
2022-09-21T04:20:02.677Z,7.40
2022-09-21T04:23:04.265Z,7.41
2022-09-21T04:26:05.875Z,7.42
2022-09-21T04:29:07.557Z,7.40
2022-09-21T04:32:10.093Z,7.32
2022-09-21T04:35:13.058Z,7.33
2022-09-21T04:38:14.657Z,7.27
2022-09-21T04:41:16.939Z,7.34
2022-09-21T04:44:18.540Z,7.28
2022-09-21T04:47:20.150Z,7.27
2022-09-21T04:50:23.114Z,7.27
2022-09-21T04:53:24.697Z,7.35
2022-09-21T04:56:26.295Z,7.36
2022-09-21T04:59:27.891Z,7.38
2022-09-21T05:02:29.516Z,7.35
2022-09-21T05:05:32.499Z,7.36
2022-09-21T05:08:34.220Z,7.37
2022-09-21T05:11:35.839Z,7.40
2022-09-21T05:14:37.426Z,7.32
2022-09-21T05:17:39.636Z,7.33
2022-09-21T05:20:42.752Z,7.29
2022-09-21T05:23:44.399Z,7.38
2022-09-21T05:26:46.011Z,7.42
2022-09-21T05:29:47.991Z,7.37
2022-09-21T05:32:55.050Z,7.42
2022-09-21T05:36:04.992Z,7.43
2022-09-21T05:39:06.884Z,7.49
2022-09-21T05:42:10.291Z,7.47
2022-09-21T05:45:15.652Z,7.47
2022-09-21T05:48:19.088Z,7.50
2022-09-21T05:51:27.200Z,7.63
2022-09-21T05:54:32.521Z,7.63
2022-09-21T05:57:41.128Z,7.60
2022-09-21T06:00:44.887Z,7.60
2022-09-21T06:03:46.888Z,7.66
2022-09-21T06:06:49.926Z,7.64
2022-09-21T06:09:51.861Z,7.69
2022-09-21T06:12:53.491Z,7.73
2022-09-21T06:15:55.142Z,7.73
2022-09-21T06:18:56.749Z,7.78
2022-09-21T06:21:59.693Z,7.83
2022-09-21T06:25:01.614Z,7.83
2022-09-21T06:28:03.831Z,7.81
2022-09-21T06:31:05.483Z,7.89
2022-09-21T06:34:07.264Z,7.76
2022-09-21T06:37:10.305Z,7.92
2022-09-21T06:40:11.937Z,7.90
2022-09-21T06:43:13.602Z,7.91
2022-09-21T06:46:15.301Z,7.78
2022-09-21T06:49:17.018Z,7.91
2022-09-21T06:52:19.988Z,7.85
2022-09-21T06:55:21.564Z,7.82
2022-09-21T06:58:23.186Z,7.81
2022-09-21T07:01:24.915Z,7.94
2022-09-21T07:04:26.630Z,8.01
2022-09-21T07:07:29.921Z,8.09
2022-09-21T07:10:31.571Z,7.91
2022-09-21T07:13:33.239Z,8.03
2022-09-21T07:16:34.921Z,7.89
2022-09-21T07:19:36.577Z,8.02
2022-09-21T07:22:39.605Z,8.06
2022-09-21T07:25:41.615Z,8.11
2022-09-21T07:28:43.254Z,7.98
2022-09-21T07:31:45.104Z,8.06
2022-09-21T07:34:46.785Z,8.10
2022-09-21T07:37:49.920Z,8.23
2022-09-21T07:40:51.504Z,8.22
2022-09-21T07:43:53.405Z,8.11
2022-09-21T07:46:55.077Z,8.19
2022-09-21T07:49:56.721Z,8.34
2022-09-21T07:53:00.248Z,8.29
2022-09-21T07:56:02.412Z,8.40
2022-09-21T07:59:04.380Z,8.48
2022-09-21T08:02:06.369Z,8.58
2022-09-21T08:05:08.355Z,8.70
2022-09-21T08:08:11.333Z,8.78
2022-09-21T08:11:12.922Z,8.87
2022-09-21T08:14:14.534Z,8.97
2022-09-21T08:17:16.131Z,9.02
2022-09-21T08:20:17.759Z,9.07
2022-09-21T08:23:20.808Z,9.17
2022-09-21T08:26:22.455Z,9.32
2022-09-21T08:29:24.247Z,9.43
2022-09-21T08:32:49.265Z,9.52
2022-09-21T08:35:52.287Z,9.57
2022-09-21T08:38:55.285Z,9.66
2022-09-21T08:42:04.762Z,9.92
2022-09-21T08:45:11.082Z,10.02
2022-09-21T08:48:18.696Z,9.97
2022-09-21T08:51:22.964Z,10.01
2022-09-21T08:54:28.717Z,10.01
2022-09-21T08:57:30.906Z,10.05
2022-09-21T09:00:35.740Z,9.88
2022-09-21T09:03:46.851Z,9.80
2022-09-21T09:06:52.737Z,9.76
2022-09-21T09:10:18.146Z,9.71
2022-09-21T09:13:28.120Z,9.69
2022-09-21T09:16:32.060Z,9.63
2022-09-21T09:19:39.690Z,9.70
2022-09-21T09:22:44.921Z,9.68
2022-09-21T09:25:50.330Z,9.73
2022-09-21T09:28:55.284Z,9.61
2022-09-21T09:31:58.117Z,9.58
2022-09-21T09:35:03.220Z,9.73
2022-09-21T09:38:09.769Z,9.63
2022-09-21T09:41:21.465Z,9.76
2022-09-21T09:44:28.284Z,9.56
2022-09-21T09:47:36.537Z,9.58
2022-09-21T09:50:39.797Z,9.62
2022-09-21T09:53:41.398Z,9.56
2022-09-21T09:56:44.651Z,9.73
2022-09-21T09:59:54.004Z,9.64
2022-09-21T10:02:56.791Z,9.85
2022-09-21T10:05:58.435Z,10.03
2022-09-21T10:09:00.117Z,9.95
2022-09-21T10:12:15.682Z,10.02
2022-09-21T10:15:17.660Z,10.26
2022-09-21T10:18:21.862Z,10.34
2022-09-21T10:21:24.664Z,10.55
2022-09-21T10:24:28.251Z,10.69
2022-09-21T10:27:34.084Z,10.76
2022-09-21T10:30:36.625Z,10.84
2022-09-21T10:33:47.949Z,10.79
2022-09-21T10:36:50.419Z,10.84
2022-09-21T10:39:52.068Z,10.82
2022-09-21T10:42:55.999Z,10.89
2022-09-21T10:45:57.968Z,10.87
2022-09-21T10:49:00.025Z,10.74
2022-09-21T10:52:02.003Z,10.75
2022-09-21T10:55:04.291Z,10.87
2022-09-21T10:58:10.172Z,10.88
2022-09-21T11:01:13.338Z,10.85
2022-09-21T11:04:18.133Z,10.81
2022-09-21T11:07:22.544Z,10.84
2022-09-21T11:10:27.407Z,10.79
2022-09-21T11:13:34.105Z,10.85
2022-09-21T11:16:38.764Z,10.85
2022-09-21T11:19:43.602Z,10.88
2022-09-21T11:22:49.077Z,10.97
2022-09-21T11:25:56.919Z,10.95
2022-09-21T11:29:03.317Z,11.08
2022-09-21T11:32:21.873Z,11.12
2022-09-21T11:35:39.512Z,11.30
2022-09-21T11:38:47.329Z,11.36
2022-09-21T11:41:55.892Z,11.32
2022-09-21T11:45:00.407Z,11.29
2022-09-21T11:48:11.000Z,11.34
2022-09-21T11:51:19.774Z,11.41
2022-09-21T11:54:42.477Z,11.46
2022-09-21T11:57:49.590Z,11.30
2022-09-21T12:01:00.771Z,11.40
2022-09-21T12:04:13.890Z,11.44
2022-09-21T12:07:22.269Z,11.67
2022-09-21T12:10:42.341Z,11.71
2022-09-21T12:13:48.431Z,11.81
2022-09-21T12:16:56.692Z,11.73
2022-09-21T12:20:03.394Z,11.71
2022-09-21T12:23:16.348Z,11.52
2022-09-21T12:26:19.971Z,11.34
2022-09-21T12:29:25.591Z,11.30
2022-09-21T12:32:36.939Z,11.30
2022-09-21T12:35:41.611Z,11.38
2022-09-21T12:38:49.142Z,11.27
2022-09-21T12:41:54.208Z,11.25
2022-09-21T12:44:58.559Z,11.37
2022-09-21T12:48:06.132Z,11.40
2022-09-21T12:51:12.684Z,11.37
2022-09-21T12:54:20.923Z,11.44
2022-09-21T12:57:49.208Z,11.58
2022-09-21T13:00:57.723Z,11.56
2022-09-21T13:04:09.529Z,11.66
2022-09-21T13:07:31.996Z,11.78
2022-09-21T13:10:45.205Z,11.73
2022-09-21T13:13:47.718Z,11.77
2022-09-21T13:16:54.536Z,11.74
2022-09-21T13:19:59.024Z,11.71
2022-09-21T13:23:01.385Z,11.57
2022-09-21T13:26:04.729Z,11.55
2022-09-21T13:29:25.928Z,11.74
2022-09-21T13:32:47.625Z,11.77
2022-09-21T13:36:00.854Z,11.67
2022-09-21T13:39:16.330Z,11.71
2022-09-21T13:42:32.942Z,11.77
2022-09-21T13:45:49.244Z,11.72
2022-09-21T13:48:53.663Z,11.66
2022-09-21T13:51:59.064Z,11.67
2022-09-21T13:55:01.939Z,11.73
2022-09-21T13:58:05.030Z,11.60
2022-09-21T14:01:29.232Z,11.61
2022-09-21T14:04:34.792Z,11.32
2022-09-21T14:07:38.003Z,11.06
2022-09-21T14:10:40.276Z,10.99
2022-09-21T14:13:42.923Z,11.00
2022-09-21T14:17:02.277Z,11.06
2022-09-21T14:20:05.576Z,11.07
2022-09-21T14:23:26.077Z,11.25
2022-09-21T14:26:32.594Z,11.33
2022-09-21T14:29:39.258Z,11.50
2022-09-21T14:32:43.465Z,11.72
2022-09-21T14:35:45.824Z,11.77
2022-09-21T14:38:53.741Z,11.79
2022-09-21T14:42:03.037Z,11.79
2022-09-21T14:45:05.037Z,11.72
2022-09-21T14:48:08.802Z,11.63
2022-09-21T14:51:14.423Z,11.60
2022-09-21T14:54:23.732Z,11.52
2022-09-21T14:57:35.551Z,11.55
2022-09-21T15:00:38.850Z,11.61
2022-09-21T15:03:51.151Z,11.78
2022-09-21T15:06:57.680Z,11.98
2022-09-21T15:10:11.064Z,12.26
2022-09-21T15:13:27.494Z,12.44
2022-09-21T15:16:38.684Z,12.44
2022-09-21T15:19:40.359Z,12.62
2022-09-21T15:22:43.045Z,12.67
2022-09-21T15:25:53.444Z,12.88
2022-09-21T15:29:10.857Z,12.94
2022-09-21T15:32:23.517Z,13.12
2022-09-21T15:35:26.105Z,13.25
2022-09-21T15:38:28.367Z,13.45
2022-09-21T15:41:44.801Z,13.39
2022-09-21T15:44:47.393Z,13.69
2022-09-21T15:47:49.160Z,13.82
2022-09-21T15:50:53.703Z,14.00
2022-09-21T15:53:57.009Z,13.97
2022-09-21T15:57:05.969Z,14.15
2022-09-21T16:00:19.924Z,14.41
2022-09-21T16:03:22.897Z,14.57
2022-09-21T16:06:25.600Z,14.83
2022-09-21T16:09:28.269Z,15.06
2022-09-21T16:12:41.415Z,15.09
2022-09-21T16:15:59.477Z,15.37
2022-09-21T16:19:01.176Z,15.51
2022-09-21T16:22:03.921Z,15.42
2022-09-21T16:25:20.366Z,15.52
2022-09-21T16:28:34.474Z,15.70
2022-09-21T16:31:36.306Z,15.65
2022-09-21T16:34:38.032Z,15.02
2022-09-21T16:37:39.671Z,14.00
2022-09-21T16:40:41.381Z,12.99
2022-09-21T16:43:44.503Z,12.62
2022-09-21T16:46:46.989Z,12.39
2022-09-21T16:49:48.690Z,12.29
2022-09-21T16:52:50.519Z,12.09
2022-09-21T16:55:52.111Z,12.07
2022-09-21T16:58:55.112Z,12.06
2022-09-21T17:01:57.678Z,11.93
2022-09-21T17:04:59.341Z,11.69
2022-09-21T17:08:01.167Z,11.52
2022-09-21T17:11:03.012Z,10.88
2022-09-21T17:14:06.059Z,10.78
2022-09-21T17:17:12.349Z,10.74
2022-09-21T17:20:18.400Z,10.73
2022-09-21T17:23:20.069Z,10.69
2022-09-21T17:26:21.898Z,10.62
2022-09-21T17:29:26.043Z,10.05
2022-09-21T17:32:27.673Z,9.55
2022-09-21T17:35:31.637Z,9.25
2022-09-21T17:38:33.309Z,8.96
2022-09-21T17:41:37.256Z,8.84
2022-09-21T17:44:45.520Z,8.87
2022-09-21T17:47:47.343Z,9.04
2022-09-21T17:50:49.617Z,9.10
2022-09-21T17:53:51.800Z,8.82
2022-09-21T17:56:56.390Z,8.46
2022-09-21T18:00:02.990Z,8.20
2022-09-21T18:03:10.790Z,7.91
2022-09-21T18:06:12.881Z,7.87
2022-09-21T18:09:14.861Z,7.73
2022-09-21T18:12:40.174Z,7.93
2022-09-21T18:15:50.016Z,8.22
2022-09-21T18:18:55.310Z,7.74
2022-09-21T18:21:59.046Z,7.44
2022-09-21T18:25:01.100Z,7.26
2022-09-21T18:28:05.230Z,7.24
2022-09-21T18:31:21.731Z,7.52
2022-09-21T18:34:35.447Z,7.88
2022-09-21T18:37:44.454Z,8.13
2022-09-21T18:40:54.899Z,7.97
2022-09-21T18:44:01.095Z,8.14
2022-09-21T18:47:06.532Z,8.07
2022-09-21T18:50:17.467Z,7.74
2022-09-21T18:53:23.589Z,7.30
2022-09-21T18:56:26.385Z,7.26
2022-09-21T18:59:31.678Z,6.90
2022-09-21T19:02:33.979Z,6.51
2022-09-21T19:05:38.717Z,6.52
2022-09-21T19:08:44.671Z,6.63
2022-09-21T19:11:49.045Z,6.76
2022-09-21T19:14:57.613Z,6.92
2022-09-21T19:18:07.397Z,6.95
2022-09-21T19:21:17.206Z,7.25
2022-09-21T19:24:23.557Z,7.43
2022-09-21T19:27:28.213Z,7.45
2022-09-21T19:30:30.137Z,7.39
2022-09-21T19:33:49.372Z,7.42
2022-09-21T19:36:52.917Z,7.08
2022-09-21T19:39:54.719Z,6.69
2022-09-21T19:43:14.212Z,6.79
2022-09-21T19:46:21.155Z,6.90
2022-09-21T19:49:24.336Z,6.77
2022-09-21T19:52:29.913Z,6.71
2022-09-21T19:55:31.977Z,6.89
2022-09-21T19:58:33.894Z,7.10
2022-09-21T20:01:39.003Z,7.30
2022-09-21T20:04:44.277Z,7.54
2022-09-21T20:07:48.896Z,7.55
2022-09-21T20:11:01.590Z,6.99
2022-09-21T20:14:09.318Z,6.58
2022-09-21T20:17:12.093Z,6.60
2022-09-21T20:20:15.927Z,6.96
2022-09-21T20:23:19.270Z,7.07
2022-09-21T20:26:23.464Z,7.25
2022-09-21T20:29:25.290Z,7.32
2022-09-21T20:32:27.002Z,7.32
2022-09-21T20:35:30.142Z,7.30
2022-09-21T20:38:33.196Z,7.31
2022-09-21T20:41:37.270Z,7.41
2022-09-21T20:44:38.907Z,7.37
2022-09-21T20:47:40.603Z,7.32
2022-09-21T20:50:42.731Z,7.21
2022-09-21T20:53:45.716Z,7.28
2022-09-21T20:56:47.439Z,7.10
2022-09-21T20:59:49.165Z,6.70
2022-09-21T21:02:50.774Z,6.35
2022-09-21T21:05:52.382Z,6.02
2022-09-21T21:08:55.385Z,5.94
2022-09-21T21:11:57.038Z,6.05
2022-09-21T21:14:58.676Z,6.21
2022-09-21T21:18:00.299Z,6.49
2022-09-21T21:21:01.964Z,6.61
2022-09-21T21:24:05.439Z,6.78
2022-09-21T21:27:07.283Z,6.72
2022-09-21T21:30:09.922Z,6.87
2022-09-21T21:33:11.539Z,6.89
2022-09-21T21:36:13.206Z,6.48
2022-09-21T21:39:16.207Z,6.38
2022-09-21T21:42:18.643Z,6.14
2022-09-21T21:45:20.319Z,6.32
2022-09-21T21:48:22.003Z,6.57
2022-09-21T21:51:23.642Z,6.78
2022-09-21T21:54:26.883Z,6.85
2022-09-21T21:57:28.605Z,6.88
2022-09-21T22:00:30.218Z,6.85
2022-09-21T22:03:31.842Z,6.84
2022-09-21T22:06:34.567Z,6.26
2022-09-21T22:09:37.595Z,6.31
2022-09-21T22:12:39.303Z,6.41
2022-09-21T22:15:40.945Z,6.19
2022-09-21T22:18:44.846Z,6.28
2022-09-21T22:21:50.384Z,5.75
2022-09-21T22:24:56.325Z,5.56
2022-09-21T22:27:57.978Z,5.90
2022-09-21T22:30:59.934Z,5.95
2022-09-21T22:34:01.571Z,5.71
2022-09-21T22:37:03.253Z,5.47
2022-09-21T22:40:07.289Z,4.93
2022-09-21T22:43:09.036Z,4.96
2022-09-21T22:46:10.961Z,5.12
2022-09-21T22:49:12.644Z,5.32
2022-09-21T22:52:14.259Z,5.42
2022-09-21T22:55:17.396Z,5.56
2022-09-21T22:58:19.083Z,5.75
2022-09-21T23:01:23.714Z,5.82
2022-09-21T23:04:25.467Z,5.24
2022-09-21T23:07:27.083Z,4.92
2022-09-21T23:10:30.080Z,4.98
2022-09-21T23:13:31.744Z,5.25
2022-09-21T23:16:33.534Z,5.52
2022-09-21T23:19:35.215Z,5.68
2022-09-21T23:22:37.147Z,5.74
2022-09-21T23:25:40.165Z,5.02
2022-09-21T23:28:42.317Z,5.30
2022-09-21T23:31:46.049Z,5.56
2022-09-21T23:34:48.074Z,5.71
2022-09-21T23:37:49.766Z,5.80
2022-09-21T23:40:52.904Z,5.85
2022-09-21T23:43:54.897Z,5.95
2022-09-21T23:46:56.643Z,5.82
2022-09-21T23:49:58.277Z,5.61
2022-09-21T23:52:59.901Z,5.43
2022-09-21T23:56:03.659Z,5.38
2022-09-21T23:59:05.520Z,5.61
